createdAt,value
2019-03-28T00:01:23.483Z,28.10
2019-03-28T00:03:52.124Z,24.97
2019-03-28T00:06:20.452Z,28.40
2019-03-28T00:08:48.518Z,27.67
2019-03-28T00:11:16.756Z,27.20
2019-03-28T00:13:44.807Z,31.47
2019-03-28T00:16:12.888Z,28.83
2019-03-28T00:18:41.141Z,29.67
2019-03-28T00:21:09.499Z,28.20
2019-03-28T00:24:05.850Z,28.57
2019-03-28T00:26:34.112Z,26.80
2019-03-28T00:29:02.503Z,26.37
2019-03-28T00:31:49.887Z,28.57
2019-03-28T00:34:17.913Z,29.63
2019-03-28T00:36:45.967Z,26.10
2019-03-28T00:39:14.289Z,24.57
2019-03-28T00:41:42.364Z,29.13
2019-03-28T00:44:10.557Z,26.40
2019-03-28T00:46:38.671Z,25.40
2019-03-28T00:49:06.736Z,27.50
2019-03-28T00:51:34.928Z,24.10
2019-03-28T00:54:03.125Z,31.13
2019-03-28T00:56:44.894Z,29.30
2019-03-28T00:59:01.182Z,27.20
2019-03-28T01:01:29.349Z,25.10
2019-03-28T01:03:57.416Z,30.27
2019-03-28T01:06:25.438Z,32.27
2019-03-28T01:08:53.693Z,27.00
2019-03-28T01:11:21.771Z,29.90
2019-03-28T01:13:50.160Z,26.60
2019-03-28T01:16:18.198Z,27.57
2019-03-28T01:18:46.293Z,27.27
2019-03-28T01:21:14.533Z,30.80
2019-03-28T01:23:42.647Z,25.70
2019-03-28T01:26:10.712Z,25.10
2019-03-28T01:28:38.752Z,25.97
2019-03-28T01:31:07.007Z,25.23
2019-03-28T01:33:35.324Z,27.63
2019-03-28T01:36:03.399Z,26.03
2019-03-28T01:38:31.416Z,28.23
2019-03-28T01:40:59.949Z,26.47
2019-03-28T01:43:28.147Z,28.03
2019-03-28T01:45:56.489Z,24.80
2019-03-28T01:48:24.533Z,22.97
2019-03-28T01:50:52.828Z,29.40
2019-03-28T01:53:40.093Z,26.73
2019-03-28T01:56:08.452Z,32.17
2019-03-28T01:58:36.541Z,28.37
2019-03-28T02:01:04.573Z,25.93
2019-03-28T02:03:32.572Z,25.73
2019-03-28T02:06:00.877Z,24.37
2019-03-28T02:08:29.074Z,30.10
2019-03-28T02:11:04.916Z,26.57
2019-03-28T02:13:52.192Z,24.77
2019-03-28T02:16:20.332Z,26.33
2019-03-28T02:18:48.649Z,27.77
2019-03-28T02:21:16.730Z,24.47
2019-03-28T02:23:44.805Z,25.23
2019-03-28T02:26:13.180Z,25.03
2019-03-28T02:28:41.566Z,26.47
2019-03-28T02:31:09.616Z,28.87
2019-03-28T02:33:37.686Z,24.83
2019-03-28T02:36:05.913Z,23.47
2019-03-28T02:38:34.004Z,25.07
2019-03-28T02:41:02.373Z,26.40
2019-03-28T02:43:49.567Z,23.63
2019-03-28T02:46:36.841Z,26.63
2019-03-28T02:49:05.086Z,24.57
2019-03-28T02:51:52.327Z,23.93
2019-03-28T02:54:22.116Z,28.33
2019-03-28T02:56:50.482Z,23.83
2019-03-28T02:59:37.884Z,23.90
2019-03-28T03:02:06.810Z,27.20
2019-03-28T03:04:54.359Z,26.53
2019-03-28T03:10:07.601Z,21.17
2019-03-28T03:12:54.804Z,24.30
2019-03-28T03:15:23.034Z,22.87
2019-03-28T03:18:10.549Z,27.23
2019-03-28T03:20:38.911Z,23.17
2019-03-28T03:23:07.004Z,24.57
2019-03-28T03:25:35.033Z,23.90
2019-03-28T03:28:03.448Z,26.33
2019-03-28T03:30:32.145Z,24.07
2019-03-28T03:33:00.437Z,26.00
2019-03-28T03:35:28.629Z,23.70
2019-03-28T03:37:57.202Z,22.50
2019-03-28T03:40:25.305Z,25.20
2019-03-28T03:42:53.463Z,22.53
2019-03-28T03:45:21.516Z,24.67
2019-03-28T03:47:49.865Z,22.77
2019-03-28T03:50:28.336Z,21.53
2019-03-28T03:53:17.342Z,22.17
2019-03-28T03:55:45.380Z,21.17
2019-03-28T03:58:32.622Z,21.47
2019-03-28T04:01:01.195Z,24.13
2019-03-28T04:03:48.440Z,19.90
2019-03-28T04:06:16.743Z,22.00
2019-03-28T04:08:44.766Z,22.97
2019-03-28T04:11:25.422Z,22.37
2019-03-28T04:13:53.826Z,24.17
2019-03-28T04:16:22.188Z,25.37
2019-03-28T04:19:09.452Z,26.43
2019-03-28T04:21:37.709Z,20.20
2019-03-28T04:24:05.891Z,22.67
2019-03-28T04:26:53.675Z,21.83
2019-03-28T04:29:40.896Z,19.87
2019-03-28T04:32:09.004Z,21.53
2019-03-28T04:34:37.246Z,25.63
2019-03-28T04:37:05.386Z,20.53
2019-03-28T04:39:34.651Z,20.07
2019-03-28T04:42:02.755Z,21.20
2019-03-28T04:44:30.940Z,25.47
2019-03-28T04:46:59.192Z,20.27
2019-03-28T04:49:27.463Z,21.87
2019-03-28T04:51:55.526Z,23.37
2019-03-28T04:54:23.891Z,22.83
2019-03-28T04:56:52.229Z,22.37
2019-03-28T04:59:20.328Z,22.67
2019-03-28T05:01:59.667Z,19.07
2019-03-28T05:04:21.108Z,18.77
2019-03-28T05:06:48.480Z,23.00
2019-03-28T05:09:16.710Z,23.30
2019-03-28T05:12:04.197Z,23.20
2019-03-28T05:14:44.946Z,22.30
2019-03-28T05:17:12.995Z,23.53
2019-03-28T05:20:00.351Z,23.17
2019-03-28T05:22:28.767Z,21.93
2019-03-28T05:24:56.846Z,21.67
2019-03-28T05:27:25.123Z,21.10
2019-03-28T05:29:53.320Z,25.87
2019-03-28T05:32:21.440Z,24.17
2019-03-28T05:35:09.029Z,21.93
2019-03-28T05:37:37.293Z,24.20
2019-03-28T05:40:05.740Z,24.10
2019-03-28T05:42:53.075Z,23.73
2019-03-28T05:45:21.496Z,27.27
2019-03-28T05:47:49.566Z,23.30
2019-03-28T05:50:17.673Z,24.17
2019-03-28T05:52:45.963Z,27.63
2019-03-28T05:55:14.135Z,22.70
2019-03-28T05:57:42.235Z,23.93
2019-03-28T06:00:29.496Z,24.27
2019-03-28T06:02:57.608Z,29.13
2019-03-28T06:05:26.340Z,24.50
2019-03-28T06:07:55.145Z,22.57
2019-03-28T06:10:23.223Z,26.67
2019-03-28T06:12:51.264Z,27.43
2019-03-28T06:15:40.874Z,25.53
2019-03-28T06:18:08.457Z,27.23
2019-03-28T06:20:55.931Z,26.97
2019-03-28T06:23:24.101Z,25.10
2019-03-28T06:26:05.167Z,21.57
2019-03-28T06:28:33.321Z,25.03
2019-03-28T06:31:01.669Z,27.07
2019-03-28T06:33:48.918Z,26.77
2019-03-28T06:36:16.998Z,25.43
2019-03-28T06:38:45.036Z,26.47
2019-03-28T06:41:13.267Z,26.87
2019-03-28T06:43:42.167Z,25.17
2019-03-28T06:46:10.345Z,26.07
2019-03-28T06:48:38.574Z,27.67
2019-03-28T06:51:06.898Z,23.37
2019-03-28T06:53:35.546Z,25.63
2019-03-28T06:56:04.622Z,22.20
2019-03-28T06:58:52.005Z,23.30
2019-03-28T07:01:20.077Z,25.80
2019-03-28T07:03:48.338Z,28.13
2019-03-28T07:06:16.737Z,25.73
2019-03-28T07:08:44.925Z,36.80
2019-03-28T07:11:13.019Z,25.23
2019-03-28T07:13:41.244Z,24.43
2019-03-28T07:16:09.556Z,25.10
2019-03-28T07:18:37.599Z,22.37
2019-03-28T07:21:05.639Z,23.70
2019-03-28T07:23:34.048Z,25.80
2019-03-28T07:26:02.107Z,21.73
2019-03-28T07:28:49.564Z,19.30
2019-03-28T07:31:17.671Z,20.20
2019-03-28T07:33:45.748Z,21.77
2019-03-28T07:36:13.753Z,24.70
2019-03-28T07:38:41.926Z,22.57
2019-03-28T07:41:29.192Z,21.30
2019-03-28T07:43:57.242Z,23.67
2019-03-28T07:46:25.540Z,27.43
2019-03-28T07:48:53.839Z,18.63
2019-03-28T07:51:21.875Z,16.00
2019-03-28T07:54:09.078Z,17.97
2019-03-28T07:56:37.355Z,19.90
2019-03-28T07:59:05.408Z,17.97
2019-03-28T08:01:33.482Z,20.27
2019-03-28T08:04:01.888Z,19.60
2019-03-28T08:06:50.417Z,21.93
2019-03-28T08:09:19.100Z,21.60
2019-03-28T08:11:48.343Z,21.83
2019-03-28T08:14:16.757Z,23.17
2019-03-28T08:16:44.842Z,21.00
2019-03-28T08:19:12.911Z,19.80
2019-03-28T08:21:40.966Z,20.00
2019-03-28T08:24:09.330Z,21.03
2019-03-28T08:26:37.457Z,19.17
2019-03-28T08:29:05.599Z,20.57
2019-03-28T08:31:33.632Z,20.10
2019-03-28T08:34:20.872Z,23.67
2019-03-28T08:36:48.888Z,19.63
2019-03-28T08:39:16.928Z,19.83
2019-03-28T08:41:48.440Z,18.13
2019-03-28T08:44:15.011Z,19.63
2019-03-28T08:46:43.283Z,19.27
2019-03-28T08:49:30.520Z,16.93
2019-03-28T08:51:58.650Z,17.47
2019-03-28T08:54:45.859Z,12.40
2019-03-28T08:57:15.113Z,13.90
2019-03-28T08:59:43.295Z,15.47
2019-03-28T09:02:30.720Z,11.57
2019-03-28T09:04:59.097Z,13.53
2019-03-28T09:07:27.096Z,14.93
2019-03-28T09:09:55.174Z,15.33
2019-03-28T09:12:23.407Z,14.43
2019-03-28T09:15:10.627Z,15.33
2019-03-28T09:17:38.736Z,18.03
2019-03-28T09:20:06.890Z,15.30
2019-03-28T09:22:35.120Z,15.33
2019-03-28T09:25:03.467Z,18.27
2019-03-28T09:27:31.475Z,15.73
2019-03-28T09:29:59.572Z,16.50
2019-03-28T09:32:27.728Z,17.03
2019-03-28T09:34:56.001Z,17.97
2019-03-28T09:37:24.060Z,14.33
2019-03-28T09:40:11.428Z,14.03
2019-03-28T09:42:39.447Z,13.87
2019-03-28T09:45:26.666Z,21.03
2019-03-28T09:50:39.927Z,13.90
2019-03-28T09:53:08.317Z,15.97
2019-03-28T09:55:36.389Z,15.57
2019-03-28T09:58:04.444Z,14.80
2019-03-28T10:01:02.564Z,16.00
2019-03-28T10:03:22.780Z,15.50
2019-03-28T10:06:10.207Z,14.33
2019-03-28T10:08:38.488Z,16.30
2019-03-28T10:11:06.814Z,14.43
2019-03-28T10:13:34.877Z,21.43
2019-03-28T10:16:02.932Z,13.90
2019-03-28T10:18:50.120Z,15.13
2019-03-28T10:21:18.159Z,19.03
2019-03-28T10:23:46.205Z,15.27
2019-03-28T10:26:14.372Z,12.63
2019-03-28T10:28:42.693Z,11.07
2019-03-28T10:31:30.137Z,15.93
2019-03-28T10:33:58.226Z,11.00
2019-03-28T10:36:45.483Z,12.53
2019-03-28T10:39:13.556Z,9.83
2019-03-28T10:41:41.613Z,9.60
2019-03-28T10:44:09.655Z,11.40
2019-03-28T10:46:37.957Z,10.27
2019-03-28T10:49:06.219Z,11.57
2019-03-28T10:51:34.296Z,12.90
2019-03-28T10:54:21.608Z,10.23
2019-03-28T10:56:55.952Z,8.87
2019-03-28T10:59:38.607Z,9.47
2019-03-28T11:02:06.696Z,10.30
2019-03-28T11:04:34.733Z,9.00
2019-03-28T11:07:02.968Z,14.27
2019-03-28T11:09:50.266Z,8.50
2019-03-28T11:12:33.747Z,12.87
2019-03-28T11:17:47.638Z,5.53
2019-03-28T11:20:16.073Z,10.70
2019-03-28T11:22:44.380Z,5.90
2019-03-28T11:25:12.452Z,7.53
2019-03-28T11:27:40.509Z,11.30
2019-03-28T11:30:08.588Z,7.60
2019-03-28T11:32:36.936Z,8.97
2019-03-28T11:35:24.126Z,10.77
2019-03-28T11:37:52.516Z,10.17
2019-03-28T11:40:20.848Z,8.97
2019-03-28T11:42:51.880Z,7.77
2019-03-28T11:45:37.807Z,6.20
2019-03-28T11:48:05.912Z,12.90
2019-03-28T11:50:34.070Z,10.23
2019-03-28T11:53:02.296Z,11.50
2019-03-28T11:55:30.607Z,9.57
2019-03-28T11:57:58.681Z,10.70
2019-03-28T12:00:28.157Z,7.50
2019-03-28T12:02:56.461Z,9.97
2019-03-28T12:05:24.563Z,9.97
2019-03-28T12:07:52.599Z,8.90
2019-03-28T12:10:20.598Z,7.93
2019-03-28T12:12:48.952Z,7.97
2019-03-28T12:15:36.123Z,8.13
2019-03-28T12:20:49.767Z,8.63
2019-03-28T12:23:17.788Z,9.03
2019-03-28T12:25:47.329Z,8.27
2019-03-28T12:28:15.893Z,10.90
2019-03-28T12:30:44.040Z,9.23
2019-03-28T12:33:12.062Z,9.47
2019-03-28T12:35:40.267Z,7.13
2019-03-28T12:38:28.638Z,7.20
2019-03-28T12:40:57.113Z,5.63
2019-03-28T12:43:25.102Z,6.80
2019-03-28T12:46:12.351Z,6.23
2019-03-28T12:51:24.564Z,6.17
2019-03-28T12:53:52.901Z,9.63
2019-03-28T12:56:21.161Z,9.43
2019-03-28T12:59:08.533Z,9.23
2019-03-28T13:01:36.582Z,13.47
2019-03-28T13:04:04.704Z,7.33
2019-03-28T13:06:33.494Z,8.90
2019-03-28T13:09:02.114Z,8.07
2019-03-28T13:11:30.359Z,6.93
2019-03-28T13:13:58.391Z,8.83
2019-03-28T13:16:26.423Z,7.17
2019-03-28T13:18:54.460Z,11.13
2019-03-28T13:21:22.507Z,6.67
2019-03-28T13:23:50.665Z,7.23
2019-03-28T13:26:19.024Z,5.73
2019-03-28T13:28:47.090Z,6.43
2019-03-28T13:31:34.292Z,6.33
2019-03-28T13:36:46.742Z,7.60
2019-03-28T13:39:14.923Z,7.43
2019-03-28T13:41:44.361Z,7.80
2019-03-28T13:44:12.730Z,6.70
2019-03-28T13:46:40.692Z,7.50
2019-03-28T13:49:08.897Z,10.70
2019-03-28T13:51:36.920Z,7.80
2019-03-28T13:54:04.836Z,6.10
2019-03-28T13:56:32.830Z,7.27
2019-03-28T13:59:00.824Z,6.50
2019-03-28T14:01:28.794Z,6.83
2019-03-28T14:04:15.967Z,5.50
2019-03-28T14:06:43.949Z,7.17
2019-03-28T14:09:12.128Z,8.03
2019-03-28T14:11:59.189Z,5.43
2019-03-28T14:14:27.295Z,8.43
2019-03-28T14:16:55.311Z,7.43
2019-03-28T14:19:23.425Z,7.90
2019-03-28T14:21:51.436Z,7.37
2019-03-28T14:24:38.698Z,7.70
2019-03-28T14:27:06.713Z,5.47
2019-03-28T14:29:34.941Z,7.47
2019-03-28T14:32:03.276Z,8.67
2019-03-28T14:34:31.288Z,7.53
2019-03-28T14:36:59.529Z,6.70
2019-03-28T14:39:27.551Z,8.77
2019-03-28T14:41:55.637Z,7.40
2019-03-28T14:44:23.849Z,9.83
2019-03-28T14:46:51.920Z,9.20
2019-03-28T14:49:20.072Z,6.83
2019-03-28T14:51:48.575Z,8.73
2019-03-28T14:54:16.904Z,11.30
2019-03-28T14:56:44.984Z,13.37
2019-03-28T14:59:12.984Z,13.03
2019-03-28T15:01:41.043Z,9.07
2019-03-28T15:04:09.255Z,10.00
2019-03-28T15:06:37.397Z,8.47
2019-03-28T15:09:07.207Z,12.30
2019-03-28T15:11:35.612Z,9.37
2019-03-28T15:14:03.587Z,10.83
2019-03-28T15:16:50.913Z,10.23
2019-03-28T15:19:38.300Z,11.30
2019-03-28T15:22:06.399Z,7.90
2019-03-28T15:24:34.473Z,8.47
2019-03-28T15:27:21.624Z,7.63
2019-03-28T15:29:49.694Z,10.33
2019-03-28T15:32:19.051Z,8.23
2019-03-28T15:35:06.274Z,9.33
2019-03-28T15:40:18.712Z,9.07
2019-03-28T15:42:46.606Z,10.00
2019-03-28T15:45:14.515Z,9.43
2019-03-28T15:47:43.608Z,10.90
2019-03-28T15:50:11.675Z,8.63
2019-03-28T15:52:39.559Z,7.97
2019-03-28T15:55:07.643Z,10.07
2019-03-28T15:57:36.094Z,13.50
2019-03-28T16:00:04.612Z,7.77
2019-03-28T16:02:32.682Z,8.97
2019-03-28T16:05:06.653Z,11.30
2019-03-28T16:07:34.937Z,11.53
2019-03-28T16:10:03.410Z,9.23
2019-03-28T16:12:31.485Z,10.03
2019-03-28T16:14:59.596Z,15.07
2019-03-28T16:17:27.504Z,9.90
2019-03-28T16:19:55.536Z,12.27
2019-03-28T16:22:23.911Z,12.57
2019-03-28T16:25:11.197Z,12.53
2019-03-28T16:27:39.537Z,8.83
2019-03-28T16:30:33.296Z,11.10
2019-03-28T16:33:13.398Z,13.43
2019-03-28T16:35:44.758Z,13.90
2019-03-28T16:38:13.134Z,15.50
2019-03-28T16:40:41.304Z,8.90
2019-03-28T16:43:09.290Z,7.70
2019-03-28T16:45:37.488Z,9.77
2019-03-28T16:48:05.714Z,11.17
2019-03-28T16:50:34.189Z,10.43
2019-03-28T16:53:02.450Z,13.53
2019-03-28T16:55:49.718Z,13.70
2019-03-28T16:58:17.871Z,13.57
2019-03-28T17:00:45.865Z,10.27
2019-03-28T17:03:14.125Z,11.73
2019-03-28T17:05:42.390Z,10.47
2019-03-28T17:08:10.741Z,9.43
2019-03-28T17:10:52.002Z,11.33
2019-03-28T17:13:39.293Z,11.73
2019-03-28T17:16:07.696Z,9.67
2019-03-28T17:18:35.740Z,10.20
2019-03-28T17:21:03.822Z,15.27
2019-03-28T17:23:31.807Z,17.40
2019-03-28T17:26:00.040Z,12.27
2019-03-28T17:28:36.464Z,13.23
2019-03-28T17:31:04.793Z,17.63
2019-03-28T17:33:32.765Z,14.50
2019-03-28T17:36:00.984Z,15.77
2019-03-28T17:38:28.986Z,17.23
2019-03-28T17:40:56.965Z,16.60
2019-03-28T17:43:25.173Z,15.97
2019-03-28T17:46:13.876Z,14.13
2019-03-28T17:48:42.053Z,15.87
2019-03-28T17:51:09.932Z,17.17
2019-03-28T17:53:57.122Z,18.47
2019-03-28T17:56:25.165Z,17.27
2019-03-28T17:58:53.107Z,14.17
2019-03-28T18:01:21.290Z,18.13
2019-03-28T18:03:49.548Z,18.17
2019-03-28T18:06:17.491Z,18.10
2019-03-28T18:08:45.754Z,20.40
2019-03-28T18:11:14.340Z,19.47
2019-03-28T18:13:42.780Z,14.83
2019-03-28T18:16:11.164Z,21.33
2019-03-28T18:18:39.144Z,22.00
2019-03-28T18:21:07.310Z,16.87
2019-03-28T18:23:35.407Z,17.23
2019-03-28T18:26:03.492Z,15.63
2019-03-28T18:28:31.818Z,18.87
2019-03-28T18:30:59.772Z,20.03
2019-03-28T18:33:46.874Z,16.27
2019-03-28T18:36:34.100Z,17.20
2019-03-28T18:39:03.002Z,21.07
2019-03-28T18:41:50.769Z,19.27
2019-03-28T18:44:18.769Z,25.50
2019-03-28T18:46:47.048Z,18.27
2019-03-28T18:49:15.280Z,22.23
2019-03-28T18:51:43.223Z,24.63
2019-03-28T18:54:11.204Z,25.93
2019-03-28T18:56:39.119Z,26.13
2019-03-28T18:59:07.343Z,21.63
2019-03-28T19:01:35.524Z,25.03
2019-03-28T19:04:03.469Z,25.67
2019-03-28T19:06:31.600Z,20.80
2019-03-28T19:08:59.624Z,21.43
2019-03-28T19:11:28.157Z,22.17
2019-03-28T19:13:56.519Z,23.03
2019-03-28T19:16:24.502Z,21.57
2019-03-28T19:18:52.446Z,22.80
2019-03-28T19:21:20.383Z,23.03
2019-03-28T19:23:48.527Z,27.57
2019-03-28T19:26:16.933Z,21.37
2019-03-28T19:28:44.956Z,20.90
2019-03-28T19:31:12.955Z,22.47
2019-03-28T19:33:41.203Z,24.73
2019-03-28T19:36:09.276Z,21.70
2019-03-28T19:38:37.604Z,23.70
2019-03-28T19:41:05.723Z,21.53
2019-03-28T19:43:33.802Z,23.47
2019-03-28T19:46:01.791Z,23.87
2019-03-28T19:48:30.075Z,27.57
2019-03-28T19:50:58.235Z,26.07
2019-03-28T19:53:26.261Z,23.17
2019-03-28T19:55:54.930Z,27.53
2019-03-28T19:58:22.991Z,24.80
2019-03-28T20:00:51.659Z,21.67
2019-03-28T20:03:22.984Z,24.17
2019-03-28T20:05:50.190Z,24.43
2019-03-28T20:08:18.823Z,23.97
2019-03-28T20:10:46.887Z,29.43
2019-03-28T20:13:15.310Z,27.17
2019-03-28T20:15:43.318Z,26.53
2019-03-28T20:18:24.984Z,24.20
2019-03-28T20:20:55.533Z,22.00
2019-03-28T20:23:23.442Z,25.73
2019-03-28T20:25:51.520Z,25.37
2019-03-28T20:28:19.555Z,28.47
2019-03-28T20:30:47.843Z,21.73
2019-03-28T20:33:16.138Z,32.07
2019-03-28T20:35:44.142Z,28.13
2019-03-28T20:38:12.172Z,27.33
2019-03-28T20:40:43.176Z,31.90
2019-03-28T20:43:29.448Z,26.03
2019-03-28T20:45:57.651Z,27.70
2019-03-28T20:48:25.641Z,29.00
2019-03-28T20:50:53.673Z,26.77
2019-03-28T20:53:21.681Z,28.60
2019-03-28T20:55:49.752Z,28.60
2019-03-28T20:58:37.140Z,24.50
2019-03-28T21:01:24.685Z,28.70
2019-03-28T21:03:52.815Z,26.87
2019-03-28T21:06:20.993Z,30.33
2019-03-28T21:08:49.035Z,24.90
2019-03-28T21:11:17.048Z,28.33
2019-03-28T21:13:45.020Z,31.80
2019-03-28T21:16:13.199Z,32.03
2019-03-28T21:18:41.483Z,29.80
2019-03-28T21:21:09.415Z,27.60
2019-03-28T21:23:37.467Z,27.83
2019-03-28T21:26:06.629Z,34.30
2019-03-28T21:28:46.619Z,31.13
2019-03-28T21:31:04.413Z,32.73
2019-03-28T21:33:32.867Z,31.40
2019-03-28T21:36:01.284Z,33.23
2019-03-28T21:38:29.393Z,33.73
2019-03-28T21:40:59.542Z,29.20
2019-03-28T21:43:27.605Z,32.13
2019-03-28T21:45:55.787Z,30.17
2019-03-28T21:48:23.874Z,27.63
2019-03-28T21:50:51.821Z,33.97
2019-03-28T21:53:20.177Z,32.00
2019-03-28T21:55:55.070Z,34.60
2019-03-28T21:58:37.787Z,33.53
2019-03-28T22:01:06.944Z,34.40
2019-03-28T22:03:39.752Z,31.27
2019-03-28T22:06:06.919Z,29.87
2019-03-28T22:08:35.314Z,35.03
2019-03-28T22:11:04.980Z,31.93
2019-03-28T22:13:32.994Z,27.53
2019-03-28T22:16:00.952Z,26.70
2019-03-28T22:18:29.331Z,28.70
2019-03-28T22:20:57.639Z,29.70
2019-03-28T22:23:25.756Z,30.53
2019-03-28T22:25:53.719Z,29.20
2019-03-28T22:28:21.992Z,33.67
2019-03-28T22:30:50.298Z,29.90
2019-03-28T22:33:18.320Z,33.73
2019-03-28T22:35:46.380Z,31.33
2019-03-28T22:38:34.987Z,28.93
2019-03-28T22:41:03.145Z,32.17
2019-03-28T22:43:32.274Z,29.93
2019-03-28T22:46:00.975Z,31.07
2019-03-28T22:48:28.933Z,33.33
2019-03-28T22:50:57.000Z,29.77
2019-03-28T22:53:25.234Z,27.53
2019-03-28T22:55:53.542Z,33.33
2019-03-28T22:58:21.515Z,28.30
2019-03-28T23:00:51.556Z,32.27
2019-03-28T23:03:20.820Z,28.93
2019-03-28T23:05:51.218Z,30.23
2019-03-28T23:08:38.451Z,29.57
2019-03-28T23:11:06.655Z,31.93
2019-03-28T23:13:34.619Z,31.13
2019-03-28T23:16:03.072Z,26.13
2019-03-28T23:18:31.417Z,27.97
2019-03-28T23:20:59.901Z,34.53
2019-03-28T23:23:27.988Z,28.87
2019-03-28T23:26:15.290Z,28.57
2019-03-28T23:28:43.318Z,28.87
2019-03-28T23:31:11.333Z,31.77
2019-03-28T23:33:39.262Z,30.80
2019-03-28T23:36:07.279Z,34.33
2019-03-28T23:38:54.544Z,31.37
2019-03-28T23:41:22.755Z,29.30
2019-03-28T23:43:51.017Z,27.33
2019-03-28T23:46:19.046Z,28.13
2019-03-28T23:48:47.892Z,29.87
2019-03-28T23:51:16.554Z,29.07
2019-03-28T23:53:44.682Z,29.73
2019-03-28T23:56:32.108Z,29.30
2019-03-28T23:59:19.539Z,28.53
